Time;durP1;ratioP1;P1;durP2;ratioP2;P2;SDS_P1;SDS_P2;PMS_P1;PMS_P2;Temp;Humidity;BMP_temperature;BMP_pressure;BME280_temperature;BME280_humidity;BME280_pressure;Samples;Min_cycle;Max_cycle;Signal;HPM_P1;HPM_P2
2023/04/06 00:01:46;;;;;;;8.70;4.23;;;;;;;;;;5027439;28;20442;-64
2023/04/06 00:04:13;;;;;;;10.47;4.33;;;;;;;;;;5027947;28;20422;-63
2023/04/06 00:06:40;;;;;;;9.83;4.63;;;;;;;;;;5010414;28;20481;-64
2023/04/06 00:09:06;;;;;;;9.43;4.23;;;;;;;;;;5020459;28;20501;-63
2023/04/06 00:11:33;;;;;;;10.43;4.27;;;;;;;;;;5016616;28;20434;-63
2023/04/06 00:14:00;;;;;;;9.50;4.87;;;;;;;;;;5027811;28;20426;-63
2023/04/06 00:16:27;;;;;;;10.93;4.60;;;;;;;;;;5031857;28;20442;-63
2023/04/06 00:18:56;;;;;;;12.97;4.73;;;;;;;;;;5031669;28;20521;-63
2023/04/06 00:21:22;;;;;;;10.50;4.10;;;;;;;;;;5031585;28;20461;-63
2023/04/06 00:23:49;;;;;;;10.80;4.70;;;;;;;;;;5031046;28;20782;-63
2023/04/06 00:26:15;;;;;;;9.20;4.53;;;;;;;;;;5031471;28;20528;-64
2023/04/06 00:28:45;;;;;;;11.67;4.70;;;;;;;;;;5009406;28;20451;-64
2023/04/06 00:31:12;;;;;;;8.70;3.83;;;;;;;;;;5011796;28;20970;-63
2023/04/06 00:33:38;;;;;;;11.17;5.10;;;;;;;;;;5011514;28;20442;-63
2023/04/06 00:36:06;;;;;;;8.10;4.30;;;;;;;;;;5021797;28;21139;-64
2023/04/06 00:38:33;;;;;;;11.63;4.43;;;;;;;;;;5031036;28;20466;-64
2023/04/06 00:41:00;;;;;;;8.90;4.20;;;;;;;;;;5030713;28;20519;-65
2023/04/06 00:43:26;;;;;;;13.67;4.70;;;;;;;;;;4998218;28;20465;-64
2023/04/06 00:45:53;;;;;;;10.20;4.67;;;;;;;;;;5032298;28;20459;-64
2023/04/06 00:48:21;;;;;;;8.33;4.80;;;;;;;;;;5012202;28;20476;-64
2023/04/06 00:50:47;;;;;;;12.03;4.77;;;;;;;;;;5030299;28;20461;-64
2023/04/06 00:53:14;;;;;;;8.87;4.23;;;;;;;;;;5030182;28;20457;-64
2023/04/06 00:55:41;;;;;;;9.70;4.63;;;;;;;;;;5012653;28;20450;-64
2023/04/06 00:58:08;;;;;;;12.10;4.53;;;;;;;;;;5009513;28;20457;-64
2023/04/06 01:00:46;;;;;;;10.03;5.10;;;;;;;;;;5029909;28;20503;-63
2023/04/06 01:03:17;;;;;;;10.83;4.10;;;;;;;;;;5012589;28;20462;-63
2023/04/06 01:05:44;;;;;;;8.80;4.30;;;;;;;;;;5011662;28;20829;-63
2023/04/06 01:08:19;;;;;;;9.03;5.00;;;;;;;;;;5030212;28;20968;-63
2023/04/06 01:10:45;;;;;;;10.93;4.73;;;;;;;;;;5029776;28;20560;-63
2023/04/06 01:13:22;;;;;;;10.03;4.70;;;;;;;;;;5028902;28;20454;-63
2023/04/06 01:15:53;;;;;;;8.47;4.23;;;;;;;;;;5026297;28;21007;-64
2023/04/06 01:18:27;;;;;;;8.07;4.03;;;;;;;;;;4997548;28;20437;-64
2023/04/06 01:21:10;;;;;;;8.47;4.50;;;;;;;;;;5012304;28;20844;-65
2023/04/06 01:23:36;;;;;;;10.17;4.50;;;;;;;;;;4992949;28;20534;-64
2023/04/06 01:26:03;;;;;;;10.90;4.50;;;;;;;;;;4991786;28;20447;-64
2023/04/06 01:28:30;;;;;;;11.63;5.07;;;;;;;;;;4992615;28;20475;-63
2023/04/06 01:31:10;;;;;;;9.10;4.47;;;;;;;;;;5009275;28;20454;-64
2023/04/06 01:33:42;;;;;;;11.70;5.30;;;;;;;;;;4992690;28;20447;-64
2023/04/06 01:36:13;;;;;;;13.30;4.60;;;;;;;;;;5009135;28;20447;-63
2023/04/06 01:38:41;;;;;;;10.37;4.83;;;;;;;;;;5007006;28;20485;-63
2023/04/06 01:41:09;;;;;;;11.17;4.90;;;;;;;;;;5025373;28;20473;-63
2023/04/06 02:18:46;;;;;;;9.13;4.37;;;;;;;;;;5011453;28;20446;-64
2023/04/06 02:21:13;;;;;;;10.93;4.90;;;;;;;;;;5011423;28;20448;-63
2023/04/06 02:23:40;;;;;;;10.87;4.27;;;;;;;;;;5029186;28;20426;-63
2023/04/06 02:26:06;;;;;;;11.53;4.57;;;;;;;;;;5029318;28;20509;-64
2023/04/06 02:28:34;;;;;;;9.53;4.37;;;;;;;;;;5028592;28;20476;-64
2023/04/06 02:31:01;;;;;;;8.90;4.40;;;;;;;;;;5011804;28;20533;-64
2023/04/06 02:33:28;;;;;;;7.60;4.40;;;;;;;;;;5011313;28;20438;-64
2023/04/06 02:35:55;;;;;;;9.23;4.83;;;;;;;;;;5011347;28;20438;-64
2023/04/06 02:38:22;;;;;;;8.50;4.30;;;;;;;;;;5010738;28;20486;-64
2023/04/06 02:40:51;;;;;;;15.70;5.20;;;;;;;;;;5027834;28;20496;-64
2023/04/06 02:43:21;;;;;;;10.33;4.80;;;;;;;;;;5011625;28;20450;-64
2023/04/06 02:45:51;;;;;;;11.33;6.07;;;;;;;;;;5010806;28;20482;-64
2023/04/06 02:48:20;;;;;;;9.50;5.17;;;;;;;;;;5011034;28;20518;-64
2023/04/06 02:50:47;;;;;;;11.40;5.17;;;;;;;;;;5010856;28;20953;-64
2023/04/06 02:53:14;;;;;;;10.83;5.63;;;;;;;;;;5011103;28;20457;-64
2023/04/06 02:55:41;;;;;;;13.37;5.50;;;;;;;;;;5010748;28;20438;-64
2023/04/06 02:58:08;;;;;;;11.87;5.87;;;;;;;;;;4999591;28;20446;-64
2023/04/06 03:00:48;;;;;;;10.87;4.80;;;;;;;;;;5010053;28;20438;-64
2023/04/06 03:03:15;;;;;;;14.90;6.20;;;;;;;;;;5010775;28;20446;-64
2023/04/06 03:05:43;;;;;;;32.80;14.93;;;;;;;;;;5010554;28;20933;-64
2023/04/06 03:08:11;;;;;;;20.00;8.80;;;;;;;;;;5028004;28;21353;-63
2023/04/06 03:10:45;;;;;;;59.50;29.13;;;;;;;;;;5010477;28;20454;-64
2023/04/06 03:13:13;;;;;;;255.13;77.80;;;;;;;;;;5010202;28;20446;-64
2023/04/06 03:15:49;;;;;;;409.60;128.30;;;;;;;;;;5010364;28;20480;-64
2023/04/06 03:18:21;;;;;;;561.80;225.77;;;;;;;;;;5007359;28;20462;-64
2023/04/06 03:20:50;;;;;;;347.47;136.23;;;;;;;;;;5009605;28;20465;-64
2023/04/06 03:23:20;;;;;;;117.00;63.67;;;;;;;;;;5028258;28;20448;-64
2023/04/06 03:25:51;;;;;;;43.47;21.67;;;;;;;;;;5013495;28;20450;-64
2023/04/06 03:28:20;;;;;;;33.47;17.53;;;;;;;;;;5010416;28;20488;-64
2023/04/06 03:30:53;;;;;;;31.33;16.53;;;;;;;;;;5009265;28;20473;-64
2023/04/06 03:33:39;;;;;;;17.63;9.23;;;;;;;;;;5024681;28;20501;-64
2023/04/06 03:36:09;;;;;;;89.40;36.67;;;;;;;;;;5012953;28;20470;-64
2023/04/06 03:38:40;;;;;;;93.20;36.07;;;;;;;;;;5010166;28;20466;-64
2023/04/06 03:41:11;;;;;;;158.87;43.63;;;;;;;;;;5010241;28;20449;-64
2023/04/06 03:43:41;;;;;;;696.57;198.20;;;;;;;;;;5010387;28;21164;-64
2023/04/06 03:46:07;;;;;;;252.37;63.43;;;;;;;;;;5027651;28;20454;-63
2023/04/06 03:48:34;;;;;;;506.77;116.93;;;;;;;;;;5029787;28;20477;-64
2023/04/06 03:51:04;;;;;;;261.83;69.30;;;;;;;;;;5013287;28;20469;-63
2023/04/06 03:53:30;;;;;;;58.40;21.83;;;;;;;;;;5010389;28;20890;-64
2023/04/06 03:55:57;;;;;;;26.40;11.07;;;;;;;;;;5014135;28;20445;-64
2023/04/06 03:58:26;;;;;;;20.53;10.23;;;;;;;;;;5014287;28;20449;-64
2023/04/06 04:00:53;;;;;;;22.03;7.73;;;;;;;;;;5031626;28;20426;-63
2023/04/06 04:03:23;;;;;;;20.17;10.00;;;;;;;;;;5031814;28;20441;-64
2023/04/06 04:05:51;;;;;;;19.10;9.67;;;;;;;;;;5031597;28;20430;-64
2023/04/06 04:08:18;;;;;;;18.37;9.17;;;;;;;;;;5013643;28;20523;-64
2023/04/06 04:10:45;;;;;;;26.73;11.10;;;;;;;;;;5012876;28;20513;-64
2023/04/06 04:13:12;;;;;;;25.17;11.50;;;;;;;;;;5014062;28;20468;-64
2023/04/06 04:15:40;;;;;;;22.93;10.30;;;;;;;;;;5013729;28;20793;-64
2023/04/06 04:18:08;;;;;;;21.37;9.70;;;;;;;;;;5013781;28;20450;-64
2023/04/06 04:20:35;;;;;;;19.33;8.87;;;;;;;;;;5031271;28;20448;-64
2023/04/06 04:23:02;;;;;;;16.93;7.77;;;;;;;;;;5031621;28;20453;-64
2023/04/06 04:25:32;;;;;;;13.07;6.77;;;;;;;;;;5013361;28;20453;-65
2023/04/06 04:27:59;;;;;;;16.03;7.67;;;;;;;;;;5031883;28;20477;-64
2023/04/06 04:30:26;;;;;;;16.73;7.53;;;;;;;;;;5012661;28;20460;-64
2023/04/06 04:32:53;;;;;;;15.90;7.33;;;;;;;;;;5013567;28;20967;-64
2023/04/06 04:35:22;;;;;;;14.80;7.10;;;;;;;;;;5021327;28;20439;-64
2023/04/06 04:37:49;;;;;;;14.53;7.53;;;;;;;;;;5010050;28;20443;-64
2023/04/06 04:40:17;;;;;;;16.60;7.43;;;;;;;;;;5013324;28;20512;-64
2023/04/06 04:43:01;;;;;;;16.53;7.60;;;;;;;;;;5010120;28;20505;-64
2023/04/06 04:45:32;;;;;;;18.97;8.07;;;;;;;;;;5010961;28;21142;-64
2023/04/06 04:48:05;;;;;;;17.33;9.13;;;;;;;;;;5012110;28;20481;-64
2023/04/06 04:50:44;;;;;;;20.13;9.07;;;;;;;;;;5025279;28;20461;-64
2023/04/06 04:53:13;;;;;;;18.67;9.63;;;;;;;;;;5004455;28;20489;-64
2023/04/06 04:55:43;;;;;;;30.57;13.50;;;;;;;;;;5008483;28;20509;-64
2023/04/06 04:58:16;;;;;;;24.13;11.80;;;;;;;;;;5010746;28;20442;-64
2023/04/06 05:00:52;;;;;;;24.40;12.70;;;;;;;;;;5035729;28;20459;-64
2023/04/06 05:03:22;;;;;;;26.03;13.20;;;;;;;;;;5032754;28;21033;-64
2023/04/06 05:06:11;;;;;;;40.07;19.23;;;;;;;;;;4995603;28;20443;-64
2023/04/06 05:08:40;;;;;;;35.17;18.30;;;;;;;;;;5004292;28;20530;-64
2023/04/06 05:11:08;;;;;;;46.47;20.27;;;;;;;;;;5012784;28;20465;-64
2023/04/06 05:13:40;;;;;;;44.40;19.93;;;;;;;;;;5012945;28;20810;-64
2023/04/06 05:16:15;;;;;;;42.30;19.70;;;;;;;;;;5013003;28;20453;-64
2023/04/06 05:18:43;;;;;;;56.20;21.87;;;;;;;;;;5011301;28;20469;-64
2023/04/06 05:21:10;;;;;;;42.37;20.23;;;;;;;;;;5030294;28;20830;-64
2023/04/06 05:23:51;;;;;;;48.33;21.17;;;;;;;;;;5012388;28;20496;-64
2023/04/06 05:26:18;;;;;;;48.63;20.47;;;;;;;;;;5002640;28;20447;-64
2023/04/06 05:28:45;;;;;;;43.03;19.50;;;;;;;;;;5010387;28;20510;-64
2023/04/06 05:31:14;;;;;;;40.87;19.13;;;;;;;;;;5009151;28;20442;-64
2023/04/06 05:33:46;;;;;;;51.70;19.47;;;;;;;;;;4995165;28;20461;-64
2023/04/06 05:36:15;;;;;;;47.47;21.43;;;;;;;;;;5012190;28;20945;-64
2023/04/06 05:38:45;;;;;;;46.60;20.60;;;;;;;;;;5012178;28;20549;-64
2023/04/06 05:41:29;;;;;;;36.83;18.03;;;;;;;;;;5029585;28;20434;-64
2023/04/06 05:43:56;;;;;;;38.70;17.37;;;;;;;;;;5012072;28;20469;-64
2023/04/06 05:46:23;;;;;;;34.27;17.37;;;;;;;;;;5010896;28;20541;-65
2023/04/06 05:48:52;;;;;;;37.53;18.33;;;;;;;;;;5012252;28;20486;-64
2023/04/06 05:51:24;;;;;;;35.13;18.97;;;;;;;;;;5011719;28;20442;-64
2023/04/06 05:53:51;;;;;;;36.23;18.40;;;;;;;;;;5011303;28;20556;-65
2023/04/06 05:56:18;;;;;;;34.87;17.97;;;;;;;;;;5012020;28;20512;-65
2023/04/06 05:58:46;;;;;;;38.93;18.20;;;;;;;;;;5010174;28;20508;-65
2023/04/06 06:01:17;;;;;;;37.57;18.70;;;;;;;;;;4996766;28;20466;-64
2023/04/06 06:03:46;;;;;;;33.30;18.40;;;;;;;;;;5010047;28;20454;-64
2023/04/06 06:06:13;;;;;;;40.17;19.57;;;;;;;;;;5011705;28;20442;-65
2023/04/06 06:09:03;;;;;;;40.07;20.60;;;;;;;;;;5011832;28;20596;-63
2023/04/06 06:11:33;;;;;;;37.23;19.77;;;;;;;;;;5011437;28;20533;-64
2023/04/06 06:14:02;;;;;;;42.40;19.20;;;;;;;;;;5011112;28;20860;-64
2023/04/06 06:16:32;;;;;;;34.40;19.50;;;;;;;;;;5011948;28;20541;-64
2023/04/06 06:18:59;;;;;;;34.93;18.77;;;;;;;;;;5010312;28;20464;-64
2023/04/06 06:21:26;;;;;;;28.40;15.07;;;;;;;;;;5011413;28;20511;-64
2023/04/06 06:23:54;;;;;;;29.37;15.90;;;;;;;;;;5010565;28;20291;-64
2023/04/06 06:26:22;;;;;;;30.33;15.57;;;;;;;;;;5009103;28;20196;-64
2023/04/06 06:28:49;;;;;;;25.50;13.77;;;;;;;;;;5014344;28;20683;-63
2023/04/06 06:31:16;;;;;;;22.90;11.97;;;;;;;;;;5010716;28;20199;-64
2023/04/06 06:33:43;;;;;;;21.13;11.33;;;;;;;;;;5011293;28;20231;-63
2023/04/06 06:36:10;;;;;;;25.10;11.97;;;;;;;;;;5029114;28;20211;-64
2023/04/06 06:38:38;;;;;;;26.97;12.33;;;;;;;;;;5010578;28;20309;-64
2023/04/06 06:41:04;;;;;;;20.20;10.27;;;;;;;;;;5008939;28;20667;-63
2023/04/06 06:43:35;;;;;;;13.50;8.17;;;;;;;;;;5005478;28;20857;-63
2023/04/06 06:46:07;;;;;;;11.37;6.57;;;;;;;;;;5011392;28;20650;-64
2023/04/06 06:48:34;;;;;;;11.00;5.70;;;;;;;;;;5010976;28;20310;-64
2023/04/06 06:51:01;;;;;;;14.43;6.67;;;;;;;;;;5011086;28;20257;-64
2023/04/06 06:53:27;;;;;;;11.23;6.23;;;;;;;;;;5010931;28;20205;-64
2023/04/06 06:55:55;;;;;;;11.03;5.60;;;;;;;;;;5011221;28;20188;-64
2023/04/06 06:58:23;;;;;;;11.50;6.30;;;;;;;;;;5028589;28;20617;-64
2023/04/06 07:00:49;;;;;;;6.10;3.33;;;;;;;;;;5027726;28;20195;-64
2023/04/06 07:03:16;;;;;;;7.50;4.23;;;;;;;;;;5021653;28;20595;-64
2023/04/06 07:05:52;;;;;;;8.57;5.00;;;;;;;;;;5007486;28;20204;-64
2023/04/06 07:08:21;;;;;;;9.30;4.80;;;;;;;;;;5008663;28;20223;-64
2023/04/06 07:10:50;;;;;;;4.40;2.80;;;;;;;;;;5008798;28;20191;-64
2023/04/06 07:13:21;;;;;;;4.57;2.80;;;;;;;;;;5018433;28;20227;-64
2023/04/06 07:15:50;;;;;;;6.83;3.23;;;;;;;;;;5005984;28;20210;-64
2023/04/06 07:18:17;;;;;;;5.93;2.87;;;;;;;;;;4991058;28;21157;-64
2023/04/06 07:20:45;;;;;;;9.43;3.97;;;;;;;;;;4997732;28;20199;-64
2023/04/06 07:23:12;;;;;;;5.13;2.70;;;;;;;;;;5017495;28;20210;-64
2023/04/06 07:25:39;;;;;;;5.00;2.47;;;;;;;;;;5027726;28;20299;-64
2023/04/06 07:28:05;;;;;;;21.37;7.50;;;;;;;;;;5010487;28;20187;-64
2023/04/06 07:30:33;;;;;;;5.87;2.90;;;;;;;;;;5024768;28;20188;-64
2023/04/06 07:33:02;;;;;;;5.53;2.33;;;;;;;;;;5016480;28;20199;-64
2023/04/06 07:35:31;;;;;;;4.93;2.30;;;;;;;;;;5004871;28;20195;-63
2023/04/06 07:37:58;;;;;;;5.83;2.43;;;;;;;;;;5007890;28;20191;-63
2023/04/06 07:40:26;;;;;;;5.77;2.90;;;;;;;;;;5004002;28;20322;-64
2023/04/06 07:42:54;;;;;;;5.73;2.70;;;;;;;;;;5008786;28;20203;-63
2023/04/06 07:45:25;;;;;;;4.90;2.37;;;;;;;;;;5029482;28;20192;-63
2023/04/06 07:47:52;;;;;;;4.03;2.70;;;;;;;;;;5031281;28;20781;-64
2023/04/06 07:50:20;;;;;;;6.43;2.80;;;;;;;;;;5012922;28;20223;-63
2023/04/06 07:52:47;;;;;;;5.97;2.80;;;;;;;;;;5010361;28;20204;-63
2023/04/06 07:55:14;;;;;;;5.13;2.97;;;;;;;;;;5011674;28;20199;-64
2023/04/06 07:57:41;;;;;;;5.17;2.80;;;;;;;;;;5029776;28;20214;-63
2023/04/06 08:00:09;;;;;;;8.67;3.00;;;;;;;;;;5030953;28;20196;-63
2023/04/06 08:02:39;;;;;;;7.23;4.17;;;;;;;;;;5029870;28;20528;-64
2023/04/06 08:05:08;;;;;;;4.67;2.97;;;;;;;;;;5027038;28;20280;-63
2023/04/06 08:07:36;;;;;;;6.03;3.20;;;;;;;;;;5030685;28;20202;-64
2023/04/06 08:10:04;;;;;;;6.03;3.67;;;;;;;;;;5007802;28;20243;-63
2023/04/06 08:12:32;;;;;;;9.60;3.70;;;;;;;;;;5024150;28;20586;-63
2023/04/06 08:15:00;;;;;;;7.03;3.23;;;;;;;;;;5028588;28;20238;-64
2023/04/06 08:17:29;;;;;;;6.73;3.17;;;;;;;;;;5024818;28;20431;-64
2023/04/06 08:19:57;;;;;;;5.50;3.00;;;;;;;;;;5025326;28;20191;-65
2023/04/06 08:22:25;;;;;;;8.63;3.20;;;;;;;;;;5030581;28;20219;-65
2023/04/06 08:24:51;;;;;;;6.93;2.97;;;;;;;;;;5030533;28;20241;-64
2023/04/06 08:27:19;;;;;;;5.77;2.80;;;;;;;;;;5028698;28;20199;-65
2023/04/06 08:29:46;;;;;;;10.43;3.50;;;;;;;;;;5029904;28;20239;-64
2023/04/06 08:32:12;;;;;;;7.40;3.47;;;;;;;;;;5000523;28;20286;-65
2023/04/06 08:34:39;;;;;;;7.40;3.50;;;;;;;;;;5027527;28;20474;-64
2023/04/06 08:37:09;;;;;;;7.17;3.43;;;;;;;;;;5030811;28;20449;-64
2023/04/06 08:39:36;;;;;;;8.97;3.13;;;;;;;;;;5030963;28;20465;-64
2023/04/06 08:42:03;;;;;;;9.50;3.50;;;;;;;;;;5029698;28;20445;-64
2023/04/06 08:44:31;;;;;;;6.83;3.37;;;;;;;;;;5030761;28;20446;-64
2023/04/06 08:46:59;;;;;;;6.03;3.47;;;;;;;;;;5030413;28;20606;-64
2023/04/06 08:49:26;;;;;;;6.87;3.63;;;;;;;;;;5030734;28;20485;-64
2023/04/06 08:51:52;;;;;;;5.07;3.03;;;;;;;;;;5030646;28;20845;-64
2023/04/06 08:54:19;;;;;;;6.20;3.53;;;;;;;;;;5013740;28;20426;-64
2023/04/06 08:56:46;;;;;;;7.13;3.80;;;;;;;;;;5030741;28;20234;-64
2023/04/06 08:59:15;;;;;;;7.80;3.90;;;;;;;;;;5013290;28;20655;-64
2023/04/06 09:01:42;;;;;;;9.57;3.20;;;;;;;;;;5013314;28;20518;-64
2023/04/06 09:04:10;;;;;;;7.63;3.20;;;;;;;;;;5031095;28;20438;-65
2023/04/06 09:06:40;;;;;;;6.90;2.80;;;;;;;;;;5013943;28;20438;-64
2023/04/06 09:09:07;;;;;;;4.30;2.63;;;;;;;;;;5030389;28;20215;-64
2023/04/06 09:11:44;;;;;;;6.93;3.10;;;;;;;;;;5030594;28;20191;-65
2023/04/06 09:14:10;;;;;;;5.23;2.90;;;;;;;;;;5029571;28;20201;-65
2023/04/06 09:16:41;;;;;;;6.53;2.40;;;;;;;;;;5030659;28;20192;-65
2023/04/06 09:19:08;;;;;;;4.77;2.53;;;;;;;;;;5030750;28;20201;-65
2023/04/06 09:21:36;;;;;;;4.13;2.47;;;;;;;;;;5030675;28;20184;-65
2023/04/06 09:24:03;;;;;;;7.63;2.70;;;;;;;;;;5030295;28;20207;-65
2023/04/06 09:26:30;;;;;;;4.87;2.33;;;;;;;;;;5030477;28;20192;-65
2023/04/06 09:28:59;;;;;;;5.10;2.70;;;;;;;;;;5030223;28;20295;-65
2023/04/06 09:31:30;;;;;;;5.93;2.10;;;;;;;;;;5029585;28;20195;-65
2023/04/06 09:33:56;;;;;;;4.33;1.80;;;;;;;;;;5030580;28;20279;-65
2023/04/06 09:36:33;;;;;;;3.13;1.87;;;;;;;;;;5030037;28;20426;-65
2023/04/06 09:39:02;;;;;;;4.30;1.90;;;;;;;;;;5030253;28;20255;-65
2023/04/06 09:41:32;;;;;;;2.43;1.60;;;;;;;;;;5012356;28;20192;-65
2023/04/06 09:44:03;;;;;;;3.80;2.10;;;;;;;;;;5029899;28;20238;-65
2023/04/06 09:46:30;;;;;;;4.17;1.87;;;;;;;;;;5028892;28;20310;-65
2023/04/06 09:49:09;;;;;;;5.10;1.80;;;;;;;;;;5029235;28;20300;-65
2023/04/06 09:51:36;;;;;;;3.27;1.90;;;;;;;;;;5012198;28;20187;-65
2023/04/06 09:54:05;;;;;;;3.57;1.73;;;;;;;;;;5029621;28;20297;-65
2023/04/06 09:56:53;;;;;;;2.40;1.43;;;;;;;;;;5029699;28;20191;-65
2023/04/06 09:59:21;;;;;;;4.67;1.83;;;;;;;;;;5029566;28;20195;-65
2023/04/06 10:01:48;;;;;;;26.33;10.67;;;;;;;;;;5029637;28;20196;-65
2023/04/06 10:04:26;;;;;;;3.77;1.87;;;;;;;;;;5027623;28;20206;-65
2023/04/06 10:06:55;;;;;;;2.57;1.70;;;;;;;;;;5009873;28;20184;-65
2023/04/06 10:09:23;;;;;;;2.80;1.90;;;;;;;;;;5008287;28;20270;-65
2023/04/06 10:11:50;;;;;;;6.40;2.67;;;;;;;;;;5009687;28;20663;-65
2023/04/06 10:14:19;;;;;;;3.70;2.27;;;;;;;;;;5009719;28;20656;-65
2023/04/06 10:16:46;;;;;;;4.20;2.20;;;;;;;;;;5009492;28;20594;-65
2023/04/06 10:19:16;;;;;;;3.03;2.00;;;;;;;;;;5010012;28;20195;-65
2023/04/06 10:21:43;;;;;;;4.90;2.03;;;;;;;;;;5009132;28;20189;-65
2023/04/06 10:24:10;;;;;;;2.53;1.70;;;;;;;;;;5009561;28;20214;-65
2023/04/06 10:26:37;;;;;;;3.43;1.80;;;;;;;;;;5009658;28;20192;-65
2023/04/06 10:29:04;;;;;;;5.23;2.40;;;;;;;;;;5009020;28;20560;-65
2023/04/06 10:31:32;;;;;;;3.90;1.80;;;;;;;;;;5005365;28;20594;-65
2023/04/06 10:33:59;;;;;;;5.93;2.33;;;;;;;;;;5011788;28;20199;-65
2023/04/06 10:36:27;;;;;;;23.37;8.17;;;;;;;;;;5029014;28;20226;-65
2023/04/06 10:38:58;;;;;;;4.13;1.80;;;;;;;;;;5028549;28;20223;-65
2023/04/06 10:41:31;;;;;;;3.00;1.70;;;;;;;;;;5027938;28;20647;-65
2023/04/06 10:43:58;;;;;;;5.43;2.10;;;;;;;;;;5028792;28;20191;-65
2023/04/06 10:46:33;;;;;;;5.60;2.07;;;;;;;;;;5011827;28;20265;-65
2023/04/06 10:49:11;;;;;;;4.07;2.10;;;;;;;;;;5029128;28;20198;-65
2023/04/06 10:51:38;;;;;;;3.03;1.80;;;;;;;;;;5028839;28;20187;-65
2023/04/06 10:54:06;;;;;;;5.43;2.30;;;;;;;;;;5028827;28;20694;-65
2023/04/06 10:56:34;;;;;;;3.67;2.07;;;;;;;;;;5028773;28;20566;-65
2023/04/06 10:59:01;;;;;;;4.13;2.10;;;;;;;;;;5027208;28;20203;-65
2023/04/06 11:01:27;;;;;;;4.60;1.80;;;;;;;;;;5028748;28;20550;-65
2023/04/06 11:03:55;;;;;;;3.37;2.20;;;;;;;;;;5027855;28;20196;-64
2023/04/06 11:06:23;;;;;;;3.70;2.50;;;;;;;;;;5028530;28;20211;-64
2023/04/06 11:08:50;;;;;;;5.30;2.30;;;;;;;;;;5028201;28;20195;-64
2023/04/06 11:11:18;;;;;;;4.30;2.40;;;;;;;;;;5028614;28;20230;-64
2023/04/06 11:13:49;;;;;;;4.87;2.97;;;;;;;;;;5028290;28;20195;-64
2023/04/06 11:16:20;;;;;;;4.57;2.40;;;;;;;;;;5028707;28;20663;-64
2023/04/06 11:18:48;;;;;;;4.30;2.27;;;;;;;;;;5028720;28;20183;-64
2023/04/06 11:21:14;;;;;;;4.03;2.40;;;;;;;;;;5028125;28;20195;-64
2023/04/06 11:23:42;;;;;;;4.07;1.90;;;;;;;;;;5027615;28;20682;-64
2023/04/06 11:26:12;;;;;;;3.13;2.10;;;;;;;;;;5028037;28;20191;-64
2023/04/06 11:28:42;;;;;;;5.63;2.50;;;;;;;;;;5028162;28;20187;-64
2023/04/06 11:31:11;;;;;;;3.63;2.33;;;;;;;;;;5028337;28;20285;-64
2023/04/06 11:33:38;;;;;;;3.87;1.90;;;;;;;;;;5028046;28;20681;-64
2023/04/06 11:36:05;;;;;;;6.03;2.43;;;;;;;;;;5027847;28;20253;-65
2023/04/06 11:38:33;;;;;;;3.03;1.77;;;;;;;;;;5027898;28;20224;-64
2023/04/06 11:41:04;;;;;;;3.47;1.80;;;;;;;;;;5027437;28;20201;-64
2023/04/06 11:43:33;;;;;;;3.07;1.67;;;;;;;;;;5026777;28;20199;-64
2023/04/06 11:46:03;;;;;;;4.63;2.80;;;;;;;;;;5028415;28;20558;-64
2023/04/06 11:48:31;;;;;;;5.30;2.80;;;;;;;;;;5027847;28;20190;-64
2023/04/06 11:51:00;;;;;;;4.20;2.50;;;;;;;;;;5027755;28;20314;-64
2023/04/06 11:53:30;;;;;;;3.53;1.80;;;;;;;;;;5027944;28;20195;-64
2023/04/06 11:55:57;;;;;;;5.80;1.90;;;;;;;;;;5010258;28;20195;-64
2023/04/06 11:58:27;;;;;;;4.13;1.77;;;;;;;;;;5008107;28;20220;-64
2023/04/06 12:00:53;;;;;;;3.50;2.10;;;;;;;;;;5007919;28;20253;-64
2023/04/06 12:03:20;;;;;;;5.93;2.03;;;;;;;;;;5008380;28;20196;-64
2023/04/06 12:05:47;;;;;;;7.73;2.00;;;;;;;;;;5006791;28;20267;-64
2023/04/06 12:08:14;;;;;;;3.50;1.83;;;;;;;;;;5008119;28;20192;-64
2023/04/06 12:10:40;;;;;;;2.83;2.20;;;;;;;;;;5009404;28;20238;-65
2023/04/06 12:13:07;;;;;;;3.23;1.60;;;;;;;;;;5012078;28;20192;-64
2023/04/06 12:15:34;;;;;;;3.73;1.70;;;;;;;;;;5018598;28;20221;-65
2023/04/06 12:18:01;;;;;;;2.80;1.40;;;;;;;;;;5031830;28;20192;-64
2023/04/06 12:20:27;;;;;;;5.33;1.70;;;;;;;;;;5031576;28;20186;-64
2023/04/06 12:22:54;;;;;;;2.10;1.40;;;;;;;;;;5031469;28;20183;-65
2023/04/06 12:25:21;;;;;;;3.83;1.80;;;;;;;;;;5032034;28;20201;-65
2023/04/06 12:27:48;;;;;;;3.90;1.63;;;;;;;;;;5031395;28;20555;-65
2023/04/06 12:30:15;;;;;;;4.03;1.20;;;;;;;;;;5031114;28;20223;-65
2023/04/06 12:32:41;;;;;;;7.37;3.53;;;;;;;;;;5018776;28;20199;-65
2023/04/06 12:35:09;;;;;;;3.47;2.07;;;;;;;;;;5011482;28;20215;-65
2023/04/06 12:37:36;;;;;;;8.73;5.57;;;;;;;;;;5011231;28;20188;-65
2023/04/06 12:40:04;;;;;;;4.47;3.70;;;;;;;;;;5019876;28;20226;-65
2023/04/06 12:42:30;;;;;;;2.40;1.43;;;;;;;;;;5030919;28;20195;-65
2023/04/06 12:44:58;;;;;;;2.43;1.40;;;;;;;;;;5031148;28;20643;-65
2023/04/06 12:47:26;;;;;;;3.57;2.70;;;;;;;;;;5030961;28;20535;-65
2023/04/06 12:49:53;;;;;;;3.83;2.30;;;;;;;;;;5030975;28;20219;-65
2023/04/06 12:52:22;;;;;;;7.73;4.20;;;;;;;;;;5030775;28;20858;-65
2023/04/06 12:54:49;;;;;;;7.93;4.27;;;;;;;;;;5013273;28;20187;-65
2023/04/06 12:57:16;;;;;;;5.87;2.10;;;;;;;;;;5030881;28;20257;-64
2023/04/06 12:59:44;;;;;;;2.90;1.30;;;;;;;;;;5030630;28;20188;-64
2023/04/06 13:02:11;;;;;;;3.17;1.40;;;;;;;;;;5030733;28;20733;-64
2023/04/06 13:04:38;;;;;;;8.33;1.30;;;;;;;;;;5027690;28;20683;-64
2023/04/06 13:07:05;;;;;;;3.27;1.60;;;;;;;;;;5029331;28;20188;-64
2023/04/06 13:09:31;;;;;;;6.53;2.07;;;;;;;;;;5025657;28;20199;-64
2023/04/06 13:11:58;;;;;;;116.70;37.27;;;;;;;;;;5025474;28;20183;-64
2023/04/06 13:14:25;;;;;;;256.90;67.13;;;;;;;;;;5031855;28;20195;-63
2023/04/06 13:16:52;;;;;;;695.20;220.63;;;;;;;;;;5015122;28;20199;-64
2023/04/06 13:19:18;;;;;;;798.57;253.37;;;;;;;;;;5031505;28;20191;-65
2023/04/06 13:21:45;;;;;;;523.40;136.83;;;;;;;;;;5031788;28;20202;-65
2023/04/06 13:24:12;;;;;;;400.10;100.93;;;;;;;;;;5032159;28;20184;-65
2023/04/06 13:26:41;;;;;;;46.93;18.13;;;;;;;;;;5033749;28;20187;-65
2023/04/06 13:29:08;;;;;;;142.70;27.90;;;;;;;;;;5033121;28;20532;-64
2023/04/06 13:31:35;;;;;;;11.77;4.30;;;;;;;;;;5034126;28;20633;-65
2023/04/06 13:34:01;;;;;;;115.73;21.67;;;;;;;;;;5033052;28;20187;-65
2023/04/06 13:36:28;;;;;;;34.23;7.87;;;;;;;;;;5031038;28;20282;-66
2023/04/06 13:38:55;;;;;;;2.93;1.30;;;;;;;;;;5031163;28;20316;-65
2023/04/06 13:41:22;;;;;;;9.30;2.53;;;;;;;;;;5034465;28;20654;-65
2023/04/06 13:43:51;;;;;;;112.67;22.50;;;;;;;;;;5033213;28;20249;-66
2023/04/06 13:46:18;;;;;;;23.87;16.57;;;;;;;;;;5033050;28;20184;-65
2023/04/06 13:48:46;;;;;;;8.23;4.50;;;;;;;;;;5032436;28;20250;-66
2023/04/06 13:51:15;;;;;;;1.57;0.83;;;;;;;;;;5019710;28;20211;-66
2023/04/06 13:53:41;;;;;;;35.57;9.07;;;;;;;;;;5033102;28;20594;-66
2023/04/06 13:56:09;;;;;;;54.87;17.47;;;;;;;;;;5031851;28;20187;-64
2023/04/06 13:58:37;;;;;;;10.27;2.87;;;;;;;;;;5026340;28;20218;-64
2023/04/06 14:01:05;;;;;;;2.53;1.17;;;;;;;;;;5031422;28;20235;-65
2023/04/06 14:03:33;;;;;;;1.90;1.10;;;;;;;;;;5033179;28;20282;-64
2023/04/06 14:06:01;;;;;;;36.13;17.10;;;;;;;;;;5028195;28;20218;-64
2023/04/06 14:08:41;;;;;;;10.40;5.37;;;;;;;;;;5030935;28;20203;-64
2023/04/06 14:11:11;;;;;;;1.73;0.83;;;;;;;;;;5031831;28;20203;-65
2023/04/06 14:13:39;;;;;;;4.93;0.97;;;;;;;;;;5006861;28;20250;-64
2023/04/06 14:16:06;;;;;;;4.20;2.00;;;;;;;;;;5028034;28;20183;-64
2023/04/06 14:18:36;;;;;;;3.37;1.27;;;;;;;;;;5032025;28;20221;-65
2023/04/06 14:21:03;;;;;;;5.67;1.90;;;;;;;;;;5031742;28;20190;-64
2023/04/06 14:23:30;;;;;;;6.47;3.60;;;;;;;;;;5032347;28;20838;-65
2023/04/06 14:26:02;;;;;;;4.07;1.20;;;;;;;;;;5026591;28;20215;-65
2023/04/06 14:28:29;;;;;;;1.30;0.90;;;;;;;;;;5029200;28;20188;-65
2023/04/06 14:30:56;;;;;;;4.23;1.20;;;;;;;;;;5031461;28;20217;-64
2023/04/06 14:33:23;;;;;;;2.30;1.50;;;;;;;;;;5029460;28;20187;-65
2023/04/06 14:35:50;;;;;;;2.20;1.10;;;;;;;;;;5031971;28;20538;-65
2023/04/06 14:38:16;;;;;;;1.87;0.93;;;;;;;;;;5031554;28;20259;-65
2023/04/06 14:40:44;;;;;;;2.00;0.90;;;;;;;;;;5032139;28;20188;-65
2023/04/06 14:43:11;;;;;;;4.47;1.50;;;;;;;;;;5031854;28;20227;-65
2023/04/06 14:45:39;;;;;;;2.30;1.13;;;;;;;;;;5012473;28;20282;-65
2023/04/06 14:48:06;;;;;;;2.00;1.17;;;;;;;;;;5029871;28;20191;-65
2023/04/06 14:50:34;;;;;;;4.10;3.53;;;;;;;;;;5038690;28;20210;-65
2023/04/06 14:53:01;;;;;;;1.50;1.40;;;;;;;;;;5034887;28;20203;-65
2023/04/06 14:55:28;;;;;;;6.27;5.67;;;;;;;;;;5031492;28;20568;-65
2023/04/06 14:57:55;;;;;;;2.10;1.30;;;;;;;;;;5031039;28;20214;-64
2023/04/06 15:00:22;;;;;;;1.63;1.10;;;;;;;;;;5031346;28;20653;-64
2023/04/06 15:02:49;;;;;;;4.33;1.57;;;;;;;;;;5029513;28;20211;-64
2023/04/06 15:05:16;;;;;;;1.47;1.10;;;;;;;;;;5031838;28;20237;-65
2023/04/06 15:07:44;;;;;;;2.67;1.30;;;;;;;;;;5031695;28;20442;-64
2023/04/06 15:10:11;;;;;;;3.80;1.50;;;;;;;;;;5031001;28;20458;-64
2023/04/06 15:12:38;;;;;;;2.50;1.33;;;;;;;;;;5030793;28;20959;-64
2023/04/06 15:15:05;;;;;;;4.27;1.40;;;;;;;;;;5031052;28;20430;-64
2023/04/06 15:17:31;;;;;;;2.63;1.43;;;;;;;;;;5031281;28;20790;-65